createdAt,value
2022-08-22T00:01:57.303Z,1.13
2022-08-22T00:02:59.074Z,1.10
2022-08-22T00:03:03.229Z,1.50
2022-08-22T00:03:09.032Z,1.30
2022-08-22T00:03:11.472Z,1.50
2022-08-22T00:03:12.734Z,1.30
2022-08-22T00:04:35.192Z,1.10
2022-08-22T00:07:08.782Z,1.00
2022-08-22T00:09:45.283Z,1.20
2022-08-22T00:12:32.629Z,1.30
2022-08-22T00:15:31.701Z,0.90
2022-08-22T00:18:50.107Z,1.40
2022-08-22T00:21:23.333Z,0.90
2022-08-22T00:24:13.910Z,1.40
2022-08-22T00:26:49.314Z,0.90
2022-08-22T00:29:24.542Z,1.03
2022-08-22T00:32:02.044Z,1.60
2022-08-22T00:34:49.120Z,1.10
2022-08-22T00:37:21.217Z,0.90
2022-08-22T00:40:03.263Z,1.10
2022-08-22T00:43:01.049Z,1.27
2022-08-22T00:46:04.220Z,0.97
2022-08-22T00:49:14.945Z,1.37
2022-08-22T00:52:00.817Z,1.50
2022-08-22T00:54:35.315Z,1.40
2022-08-22T00:57:18.653Z,1.40
2022-08-22T01:00:13.678Z,1.47
2022-08-22T01:03:08.574Z,1.10
2022-08-22T01:05:51.544Z,1.10
2022-08-22T01:08:28.662Z,1.00
2022-08-22T01:11:11.209Z,1.40
2022-08-22T01:14:06.545Z,1.20
2022-08-22T01:17:00.690Z,1.73
2022-08-22T01:19:55.764Z,1.00
2022-08-22T01:22:41.861Z,1.03
2022-08-22T01:25:36.630Z,1.10
2022-08-22T01:28:12.922Z,1.10
2022-08-22T01:31:37.916Z,1.27
2022-08-22T01:34:19.876Z,1.07
2022-08-22T01:37:17.943Z,1.37
2022-08-22T01:40:22.230Z,1.20
2022-08-22T01:43:06.957Z,1.10
2022-08-22T01:45:57.107Z,1.07
2022-08-22T01:48:47.704Z,1.20
2022-08-22T01:51:27.122Z,1.30
2022-08-22T01:54:10.824Z,1.43
2022-08-22T01:56:45.950Z,1.10
2022-08-22T01:59:50.824Z,1.20
2022-08-22T02:02:42.321Z,1.00
2022-08-22T02:05:32.044Z,1.10
2022-08-22T02:08:22.285Z,1.23
2022-08-22T02:11:09.396Z,1.30
2022-08-22T02:14:07.245Z,1.20
2022-08-22T02:16:45.075Z,1.20
2022-08-22T02:19:15.277Z,1.20
2022-08-22T02:21:50.606Z,1.20
2022-08-22T02:24:59.381Z,1.47
2022-08-22T02:27:52.418Z,1.30
2022-08-22T02:30:25.850Z,1.37
2022-08-22T02:33:13.266Z,1.10
2022-08-22T02:35:55.381Z,1.30
2022-08-22T02:38:42.997Z,1.30
2022-08-22T02:41:22.203Z,1.10
2022-08-22T02:43:54.350Z,1.20
2022-08-22T02:46:40.826Z,1.20
2022-08-22T02:49:17.225Z,0.90
2022-08-22T02:51:54.603Z,1.40
2022-08-22T02:54:52.621Z,1.30
2022-08-22T02:57:39.444Z,1.17
2022-08-22T03:00:30.892Z,1.23
2022-08-22T03:03:03.408Z,1.10
2022-08-22T03:05:36.583Z,1.17
2022-08-22T03:08:14.263Z,1.30
2022-08-22T03:10:47.181Z,1.20
2022-08-22T03:13:24.972Z,1.00
2022-08-22T03:16:04.786Z,1.40
2022-08-22T03:19:27.789Z,1.27
2022-08-22T03:22:02.530Z,1.17
2022-08-22T03:24:48.733Z,1.07
2022-08-22T03:27:32.931Z,1.37
2022-08-22T03:30:23.244Z,1.13
2022-08-22T03:32:50.801Z,1.10
2022-08-22T03:35:35.135Z,1.00
2022-08-22T03:38:28.784Z,1.20
2022-08-22T03:41:20.584Z,1.40
2022-08-22T03:44:18.500Z,1.27
2022-08-22T03:47:14.561Z,1.37
2022-08-22T03:49:41.925Z,1.43
2022-08-22T03:53:05.724Z,1.27
2022-08-22T03:55:47.050Z,1.17
2022-08-22T03:58:31.418Z,1.20
2022-08-22T04:01:17.221Z,1.37
2022-08-22T04:04:09.753Z,1.30
2022-08-22T04:07:00.746Z,1.17
2022-08-22T04:10:05.482Z,1.23
2022-08-22T04:13:05.980Z,1.13
2022-08-22T04:16:04.293Z,1.40
2022-08-22T04:18:52.710Z,1.60
2022-08-22T04:21:48.337Z,1.40
2022-08-22T04:24:43.324Z,1.40
2022-08-22T04:27:33.123Z,1.50
2022-08-22T04:30:31.772Z,1.57
2022-08-22T04:33:14.756Z,1.23
2022-08-22T04:35:54.200Z,1.13
2022-08-22T04:38:31.465Z,1.30
2022-08-22T04:41:07.657Z,1.20
2022-08-22T04:43:45.354Z,1.40
2022-08-22T04:46:41.340Z,1.30
2022-08-22T04:49:21.096Z,1.27
2022-08-22T04:52:09.685Z,1.40
2022-08-22T04:55:05.869Z,1.27
2022-08-22T04:57:46.709Z,1.23
2022-08-22T05:00:16.304Z,1.27
2022-08-22T05:02:50.620Z,1.50
2022-08-22T05:05:23.793Z,1.60
2022-08-22T05:08:03.434Z,1.70
2022-08-22T05:10:42.804Z,1.23
2022-08-22T05:13:22.273Z,1.60
2022-08-22T05:15:54.568Z,1.60
2022-08-22T05:18:32.127Z,1.37
2022-08-22T05:21:04.513Z,1.50
2022-08-22T05:23:52.439Z,1.23
2022-08-22T05:26:21.207Z,1.40
2022-08-22T05:28:53.661Z,1.60
2022-08-22T05:31:35.264Z,1.23
2022-08-22T05:34:11.554Z,1.30
2022-08-22T05:36:45.912Z,1.33
2022-08-22T05:39:18.125Z,1.63
2022-08-22T05:41:46.975Z,1.30
2022-08-22T05:44:23.410Z,1.63
2022-08-22T05:47:00.892Z,1.60
2022-08-22T05:49:46.239Z,1.37
2022-08-22T05:52:35.294Z,1.63
2022-08-22T05:55:26.145Z,1.40
2022-08-22T05:58:25.926Z,1.60
2022-08-22T06:01:08.399Z,1.50
2022-08-22T06:03:40.626Z,1.47
2022-08-22T06:06:18.311Z,1.23
2022-08-22T06:09:12.806Z,1.40
2022-08-22T06:12:21.863Z,1.53
2022-08-22T06:14:52.854Z,1.53
2022-08-22T06:17:32.939Z,1.40
2022-08-22T06:20:01.064Z,1.57
2022-08-22T06:22:35.512Z,1.67
2022-08-22T06:25:18.897Z,1.50
2022-08-22T06:27:49.553Z,1.40
2022-08-22T06:30:19.564Z,1.50
2022-08-22T06:33:00.162Z,1.43
2022-08-22T06:35:55.394Z,1.30
2022-08-22T06:38:29.746Z,1.50
2022-08-22T06:41:00.807Z,1.33
2022-08-22T06:43:37.191Z,1.50
2022-08-22T06:46:06.683Z,1.70
2022-08-22T06:48:36.474Z,1.67
2022-08-22T06:51:07.426Z,1.53
2022-08-22T06:53:45.886Z,1.63
2022-08-22T06:56:25.696Z,1.50
2022-08-22T06:58:58.960Z,1.20
2022-08-22T07:01:38.297Z,1.77
2022-08-22T07:04:09.667Z,1.50
2022-08-22T07:06:43.884Z,1.70
2022-08-22T07:09:20.401Z,1.50
2022-08-22T07:11:49.314Z,1.40
2022-08-22T07:14:25.176Z,1.30
2022-08-22T07:17:01.375Z,1.37
2022-08-22T07:19:33.197Z,1.70
2022-08-22T07:22:22.055Z,1.60
2022-08-22T07:24:57.514Z,1.20
2022-08-22T07:27:48.815Z,1.40
2022-08-22T07:30:28.239Z,1.57
2022-08-22T07:33:25.822Z,1.43
2022-08-22T07:35:59.493Z,1.50
2022-08-22T07:38:43.075Z,1.70
2022-08-22T07:41:20.348Z,1.70
2022-08-22T07:43:52.627Z,1.80
2022-08-22T07:46:36.054Z,1.83
2022-08-22T07:49:14.470Z,1.67
2022-08-22T07:51:56.070Z,1.67
2022-08-22T07:54:35.642Z,1.73
2022-08-22T07:57:15.264Z,1.80
2022-08-22T07:59:55.321Z,1.70
2022-08-22T08:02:24.929Z,1.87
2022-08-22T08:04:56.829Z,1.90
2022-08-22T08:07:27.755Z,1.70
2022-08-22T08:10:11.131Z,1.47
2022-08-22T08:12:57.892Z,1.63
2022-08-22T08:15:33.104Z,1.50
2022-08-22T08:18:06.534Z,1.60
2022-08-22T08:20:36.752Z,1.50
2022-08-22T08:23:10.849Z,1.80
2022-08-22T08:26:05.870Z,1.60
2022-08-22T08:28:40.062Z,1.47
2022-08-22T08:31:16.620Z,1.80
2022-08-22T08:33:48.430Z,1.70
2022-08-22T08:36:33.632Z,1.57
2022-08-22T08:39:00.853Z,1.60
2022-08-22T08:41:52.693Z,1.77
2022-08-22T08:44:31.849Z,1.80
2022-08-22T08:47:30.468Z,1.77
2022-08-22T08:50:06.585Z,1.90
2022-08-22T08:52:40.759Z,1.90
2022-08-22T08:58:30.476Z,1.90
2022-08-22T09:01:27.685Z,2.20
2022-08-22T09:04:04.869Z,1.83
2022-08-22T09:07:06.069Z,2.10
2022-08-22T09:09:52.806Z,1.90
2022-08-22T09:13:11.854Z,2.27
2022-08-22T09:16:22.802Z,2.10
2022-08-22T09:19:20.570Z,1.70
2022-08-22T09:21:51.193Z,1.90
2022-08-22T09:24:48.915Z,2.17
2022-08-22T09:27:37.385Z,1.93
2022-08-22T09:30:11.678Z,1.80
2022-08-22T09:33:14.555Z,2.00
2022-08-22T09:35:59.454Z,2.40
2022-08-22T09:39:10.970Z,2.03
2022-08-22T09:40:15.989Z,1.80
2022-08-22T09:42:07.943Z,2.40
2022-08-22T09:44:59.445Z,2.10
2022-08-22T09:47:39.305Z,1.90
2022-08-22T09:51:01.658Z,2.20
2022-08-22T09:54:08.903Z,2.10
2022-08-22T09:56:55.968Z,1.90
2022-08-22T09:59:37.464Z,2.03
2022-08-22T10:02:29.669Z,1.90
2022-08-22T10:05:40.310Z,2.40
2022-08-22T10:08:33.279Z,1.93
2022-08-22T10:11:12.058Z,2.10
2022-08-22T10:13:47.811Z,1.90
2022-08-22T10:16:27.652Z,1.90
2022-08-22T10:19:23.143Z,2.50
2022-08-22T10:22:22.501Z,1.87
2022-08-22T10:25:22.626Z,2.30
2022-08-22T10:28:12.313Z,2.20
2022-08-22T10:31:18.348Z,2.07
2022-08-22T10:34:03.504Z,2.70
2022-08-22T10:36:46.146Z,2.30
2022-08-22T10:39:24.659Z,1.93
2022-08-22T10:42:18.560Z,2.03
2022-08-22T10:45:23.555Z,2.10
2022-08-22T10:48:08.936Z,2.10
2022-08-22T10:50:48.245Z,2.17
2022-08-22T10:53:44.158Z,2.13
2022-08-22T10:56:23.946Z,2.00
2022-08-22T10:59:22.917Z,2.43
2022-08-22T11:02:15.026Z,2.33
2022-08-22T11:05:04.951Z,2.13
2022-08-22T11:08:06.573Z,1.93
2022-08-22T11:10:49.267Z,2.00
2022-08-22T11:13:46.837Z,2.30
2022-08-22T11:16:55.314Z,2.20
2022-08-22T11:19:44.781Z,2.10
2022-08-22T11:22:30.755Z,2.10
2022-08-22T11:25:38.555Z,2.20
2022-08-22T11:28:25.216Z,1.97
2022-08-22T11:31:10.204Z,2.40
2022-08-22T11:33:49.710Z,2.40
2022-08-22T11:36:39.803Z,1.97
2022-08-22T11:39:18.259Z,2.07
2022-08-22T11:41:57.707Z,1.93
2022-08-22T11:44:50.514Z,2.10
2022-08-22T11:47:26.689Z,2.57
2022-08-22T11:50:35.215Z,2.10
2022-08-22T11:53:04.613Z,2.30
2022-08-22T11:55:59.291Z,2.07
2022-08-22T11:59:00.950Z,2.30
2022-08-22T12:01:53.076Z,1.90
2022-08-22T12:04:42.575Z,2.80
2022-08-22T12:07:18.069Z,1.93
2022-08-22T12:09:51.001Z,2.00
2022-08-22T12:12:52.688Z,2.43
2022-08-22T12:15:40.566Z,2.00
2022-08-22T12:18:27.584Z,2.30
2022-08-22T12:20:57.666Z,2.40
2022-08-22T12:23:50.561Z,1.90
2022-08-22T12:26:28.629Z,1.80
2022-08-22T12:29:23.325Z,1.90
2022-08-22T12:32:15.640Z,2.13
2022-08-22T12:34:55.733Z,2.30
2022-08-22T12:38:03.622Z,2.20
2022-08-22T12:40:45.340Z,2.10
2022-08-22T12:43:42.752Z,2.30
2022-08-22T12:46:15.065Z,2.20
2022-08-22T12:49:17.437Z,2.40
2022-08-22T12:52:08.839Z,2.10
2022-08-22T12:55:13.672Z,2.33
2022-08-22T12:58:08.377Z,2.03
2022-08-22T13:00:35.856Z,1.73
2022-08-22T13:03:28.379Z,2.00
2022-08-22T13:06:00.355Z,2.20
2022-08-22T13:08:38.421Z,2.03
2022-08-22T13:11:23.364Z,2.20
2022-08-22T13:14:01.393Z,1.90
2022-08-22T13:16:39.156Z,1.87
2022-08-22T13:19:29.433Z,2.27
2022-08-22T13:22:02.582Z,2.13
2022-08-22T13:24:52.369Z,2.50
2022-08-22T13:27:34.450Z,3.13
2022-08-22T13:30:13.584Z,2.10
2022-08-22T13:32:44.668Z,2.10
2022-08-22T13:35:32.885Z,2.50
2022-08-22T13:38:12.326Z,2.10
2022-08-22T13:40:46.260Z,2.83
2022-08-22T13:43:20.945Z,3.17
2022-08-22T13:45:58.278Z,1.90
2022-08-22T13:48:46.758Z,2.30
2022-08-22T13:51:21.065Z,2.40
2022-08-22T13:54:02.213Z,2.83
2022-08-22T13:56:52.624Z,2.20
2022-08-22T13:59:50.338Z,1.93
2022-08-22T14:02:43.475Z,2.57
2022-08-22T14:05:36.745Z,2.27
2022-08-22T14:08:21.725Z,2.70
2022-08-22T14:11:11.372Z,2.57
2022-08-22T14:13:45.963Z,2.40
2022-08-22T14:16:21.015Z,2.43
2022-08-22T14:18:55.285Z,2.67
2022-08-22T14:21:51.392Z,1.83
2022-08-22T14:24:25.878Z,2.00
2022-08-22T14:27:14.544Z,2.20
2022-08-22T14:29:50.881Z,1.90
2022-08-22T14:32:22.796Z,2.17
2022-08-22T14:35:05.676Z,2.17
2022-08-22T14:37:42.896Z,2.00
2022-08-22T14:40:34.359Z,1.80
2022-08-22T14:43:09.622Z,2.60
2022-08-22T14:45:45.667Z,2.30
2022-08-22T14:48:40.668Z,1.83
2022-08-22T14:51:22.034Z,2.20
2022-08-22T14:53:50.865Z,2.23
2022-08-22T14:56:27.974Z,2.43
2022-08-22T14:59:01.350Z,2.27
2022-08-22T15:01:32.730Z,1.97
2022-08-22T15:04:11.232Z,2.07
2022-08-22T15:07:09.171Z,2.17
2022-08-22T15:09:50.986Z,2.17
2022-08-22T15:12:34.380Z,2.27
2022-08-22T15:15:13.339Z,2.07
2022-08-22T15:17:50.890Z,2.20
2022-08-22T15:20:28.662Z,2.43
2022-08-22T15:23:03.003Z,2.20
2022-08-22T15:25:43.032Z,2.30
2022-08-22T15:28:20.307Z,2.17
2022-08-22T15:31:03.508Z,2.13
2022-08-22T15:33:43.236Z,2.20
2022-08-22T15:36:27.446Z,2.10
2022-08-22T15:39:17.245Z,2.30
2022-08-22T15:41:47.937Z,2.50
2022-08-22T15:44:30.830Z,2.40
2022-08-22T15:47:34.842Z,2.20
2022-08-22T15:50:15.460Z,2.13
2022-08-22T15:53:14.857Z,2.30
2022-08-22T15:56:05.096Z,2.30
2022-08-22T15:58:37.621Z,2.23
2022-08-22T16:01:12.592Z,2.50
2022-08-22T16:03:58.486Z,2.33
2022-08-22T16:06:48.248Z,2.40
2022-08-22T16:09:46.581Z,2.10
2022-08-22T16:12:51.022Z,2.40
2022-08-22T16:15:54.395Z,2.50
2022-08-22T16:18:39.473Z,2.30
2022-08-22T16:21:18.255Z,2.30
2022-08-22T16:23:51.635Z,2.00
2022-08-22T16:26:43.244Z,2.30
2022-08-22T16:29:14.739Z,2.13
2022-08-22T16:31:45.102Z,2.40
2022-08-22T16:34:18.677Z,2.23
2022-08-22T16:36:55.535Z,2.20
2022-08-22T16:39:22.767Z,2.23
2022-08-22T16:42:22.713Z,2.07
2022-08-22T16:44:54.873Z,1.80
2022-08-22T16:47:42.175Z,2.37
2022-08-22T16:50:27.292Z,2.10
2022-08-22T16:53:31.506Z,2.00
2022-08-22T16:56:25.862Z,2.00
2022-08-22T16:59:23.101Z,1.90
2022-08-22T17:02:07.965Z,2.43
2022-08-22T17:04:44.430Z,2.07
2022-08-22T17:07:32.023Z,2.30
2022-08-22T17:10:17.798Z,2.13
2022-08-22T17:13:10.452Z,2.40
2022-08-22T17:15:58.001Z,2.10
2022-08-22T17:19:05.245Z,2.07
2022-08-22T17:21:51.936Z,2.00
2022-08-22T17:24:36.772Z,2.20
2022-08-22T17:27:16.059Z,2.30
2022-08-22T17:29:45.950Z,2.17
2022-08-22T17:32:24.550Z,2.20
2022-08-22T17:35:20.828Z,1.97
2022-08-22T17:38:00.600Z,2.10
2022-08-22T17:40:37.027Z,2.00
2022-08-22T17:43:10.125Z,2.27
2022-08-22T17:45:45.994Z,2.10
2022-08-22T17:48:13.386Z,2.50
2022-08-22T17:50:48.612Z,2.33
2022-08-22T17:53:24.615Z,2.40
2022-08-22T17:56:19.641Z,2.47
2022-08-22T17:59:07.053Z,2.40
2022-08-22T18:01:48.551Z,2.30
2022-08-22T18:04:39.339Z,2.33
2022-08-22T18:07:15.674Z,1.93
2022-08-22T18:09:51.785Z,2.07
2022-08-22T18:12:48.421Z,1.97
2022-08-22T18:15:29.958Z,1.73
2022-08-22T18:18:05.271Z,2.10
2022-08-22T18:20:46.317Z,2.07
2022-08-22T18:23:36.089Z,2.20
2022-08-22T18:26:31.994Z,2.10
2022-08-22T18:29:06.607Z,2.30
2022-08-22T18:32:07.483Z,2.33
2022-08-22T18:34:52.293Z,2.20
2022-08-22T18:38:00.108Z,2.10
2022-08-22T18:40:30.915Z,2.13
2022-08-22T18:43:13.594Z,2.20
2022-08-22T18:45:46.729Z,2.00
2022-08-22T18:48:59.383Z,1.97
2022-08-22T18:51:38.146Z,2.23
2022-08-22T18:54:07.206Z,1.90
2022-08-22T18:56:50.976Z,2.00
2022-08-22T18:59:26.685Z,2.20
2022-08-22T19:02:22.768Z,1.87
2022-08-22T19:05:13.045Z,2.00
2022-08-22T19:08:11.263Z,2.10
2022-08-22T19:10:47.284Z,2.70
2022-08-22T19:13:36.226Z,2.00
2022-08-22T19:16:21.175Z,2.07
2022-08-22T19:18:51.686Z,2.00
2022-08-22T19:21:48.477Z,1.90
2022-08-22T19:24:28.088Z,2.20
2022-08-22T19:27:07.658Z,2.20
2022-08-22T19:29:37.654Z,2.37
2022-08-22T19:32:12.968Z,2.50
2022-08-22T19:34:47.716Z,2.03
2022-08-22T19:37:33.341Z,2.40
2022-08-22T19:40:05.045Z,2.10
2022-08-22T19:42:36.434Z,1.93
2022-08-22T19:45:10.643Z,2.00
2022-08-22T19:47:42.644Z,2.10
2022-08-22T19:50:16.762Z,2.03
2022-08-22T19:53:00.009Z,1.97
2022-08-22T19:55:39.202Z,1.53
2022-08-22T19:58:32.535Z,1.93
2022-08-22T20:01:27.210Z,2.30
2022-08-22T20:04:15.355Z,2.00
2022-08-22T20:07:14.376Z,2.20
2022-08-22T20:10:19.816Z,2.00
2022-08-22T20:13:18.433Z,1.93
2022-08-22T20:16:08.014Z,2.03
2022-08-22T20:19:06.390Z,1.93
2022-08-22T20:21:48.557Z,1.60
2022-08-22T20:24:29.504Z,2.30
2022-08-22T20:27:15.752Z,2.30
2022-08-22T20:29:52.027Z,2.17
2022-08-22T20:32:22.256Z,2.10
2022-08-22T20:34:55.853Z,2.10
2022-08-22T20:37:45.291Z,1.90
2022-08-22T20:40:55.306Z,1.97
2022-08-22T20:43:37.881Z,1.80
2022-08-22T20:46:24.105Z,1.80
2022-08-22T20:48:54.901Z,2.20
2022-08-22T20:51:25.722Z,1.77
2022-08-22T20:54:16.833Z,2.20
2022-08-22T20:56:56.281Z,2.03
2022-08-22T20:59:29.916Z,1.80
2022-08-22T21:02:03.567Z,2.20
2022-08-22T21:04:45.928Z,1.97
2022-08-22T21:07:21.293Z,2.20
2022-08-22T21:10:15.899Z,2.10
2022-08-22T21:13:02.166Z,2.20
2022-08-22T21:15:32.141Z,1.90
2022-08-22T21:18:00.515Z,1.90
2022-08-22T21:20:33.330Z,2.30
2022-08-22T21:23:07.052Z,1.97
2022-08-22T21:25:48.983Z,2.00
2022-08-22T21:28:57.237Z,2.13
2022-08-22T21:31:28.966Z,2.20
2022-08-22T21:33:57.492Z,1.60
2022-08-22T21:36:28.761Z,1.83
2022-08-22T21:39:06.878Z,2.10
2022-08-22T21:41:52.849Z,2.20
2022-08-22T21:44:32.276Z,2.47
2022-08-22T21:47:31.491Z,2.47
2022-08-22T21:50:28.703Z,2.00
2022-08-22T21:52:55.946Z,2.00
2022-08-22T21:55:30.783Z,2.27
2022-08-22T21:58:10.255Z,1.93
2022-08-22T22:01:00.420Z,2.30
2022-08-22T22:03:30.735Z,2.20
2022-08-22T22:06:03.393Z,2.30
2022-08-22T22:08:32.034Z,2.40
2022-08-22T22:11:08.614Z,2.00
2022-08-22T22:13:37.743Z,2.07
2022-08-22T22:16:07.235Z,1.93
2022-08-22T22:18:37.637Z,2.20
2022-08-22T22:21:06.019Z,2.13
2022-08-22T22:23:33.910Z,2.07
2022-08-22T22:26:05.300Z,1.87
2022-08-22T22:28:42.067Z,2.37
2022-08-22T22:31:09.664Z,2.33
2022-08-22T22:33:39.365Z,2.33
2022-08-22T22:36:28.969Z,2.43
2022-08-22T22:38:56.459Z,2.20
2022-08-22T22:41:25.894Z,2.20
2022-08-22T22:43:54.483Z,2.30
2022-08-22T22:46:23.672Z,2.50
2022-08-22T22:48:51.176Z,2.33
2022-08-22T22:51:18.441Z,2.17
2022-08-22T22:53:48.885Z,2.17
2022-08-22T22:56:21.613Z,2.30
2022-08-22T22:58:58.964Z,2.60
2022-08-22T23:01:27.501Z,2.63
2022-08-22T23:03:57.742Z,2.80
2022-08-22T23:06:28.226Z,2.47
2022-08-22T23:08:56.171Z,2.77
2022-08-22T23:11:29.477Z,3.00
2022-08-22T23:13:57.409Z,2.93
2022-08-22T23:16:27.504Z,2.77
2022-08-22T23:18:55.600Z,2.73
2022-08-22T23:21:26.716Z,2.63
2022-08-22T23:23:56.340Z,2.40
2022-08-22T23:26:24.947Z,2.77
2022-08-22T23:28:52.299Z,2.53
2022-08-22T23:31:42.354Z,2.53
2022-08-22T23:34:13.373Z,2.43
2022-08-22T23:36:43.863Z,2.60
2022-08-22T23:39:12.648Z,3.03
2022-08-22T23:41:40.999Z,2.60
2022-08-22T23:44:13.446Z,2.60
2022-08-22T23:46:44.243Z,2.73
2022-08-22T23:49:12.179Z,2.87
2022-08-22T23:51:39.905Z,2.87
2022-08-22T23:54:07.835Z,2.60
2022-08-22T23:56:44.589Z,2.80
2022-08-22T23:59:19.409Z,2.70
